createdAt,value
2018-06-27T00:00:29.116Z,1.10
2018-06-27T00:02:57.565Z,1.13
2018-06-27T00:05:26.086Z,1.03
2018-06-27T00:07:54.475Z,0.90
2018-06-27T00:10:22.862Z,1.00
2018-06-27T00:12:51.269Z,1.20
2018-06-27T00:15:20.649Z,1.70
2018-06-27T00:17:49.053Z,1.40
2018-06-27T00:20:17.445Z,1.17
2018-06-27T00:22:45.613Z,1.60
2018-06-27T00:25:13.947Z,1.40
2018-06-27T00:27:42.305Z,1.37
2018-06-27T00:30:10.699Z,1.50
2018-06-27T00:32:39.074Z,1.50
2018-06-27T00:35:07.460Z,1.60
2018-06-27T00:37:35.849Z,1.43
2018-06-27T00:40:04.250Z,1.70
2018-06-27T00:42:32.643Z,1.30
2018-06-27T00:45:00.738Z,1.20
2018-06-27T00:47:29.138Z,0.83
2018-06-27T00:49:57.525Z,1.53
2018-06-27T00:52:25.912Z,1.37
2018-06-27T00:54:54.265Z,1.50
2018-06-27T00:57:22.636Z,1.40
2018-06-27T00:59:51.024Z,1.70
2018-06-27T01:02:19.569Z,1.13
2018-06-27T01:04:48.311Z,1.37
2018-06-27T01:07:16.736Z,1.70
2018-06-27T01:09:45.113Z,1.40
2018-06-27T01:12:13.345Z,1.50
2018-06-27T01:14:41.713Z,1.23
2018-06-27T01:17:11.144Z,1.23
2018-06-27T01:19:39.507Z,1.67
2018-06-27T01:22:07.869Z,1.40
2018-06-27T01:24:36.271Z,1.30
2018-06-27T01:27:04.742Z,1.27
2018-06-27T01:29:33.429Z,1.33
2018-06-27T01:32:01.788Z,1.40
2018-06-27T01:34:30.186Z,1.77
2018-06-27T01:36:58.550Z,1.33
2018-06-27T01:39:26.910Z,2.00
2018-06-27T01:41:55.316Z,1.20
2018-06-27T01:44:23.774Z,1.83
2018-06-27T01:46:52.208Z,1.53
2018-06-27T01:49:20.614Z,1.30
2018-06-27T01:51:49.029Z,1.33
2018-06-27T01:54:17.453Z,1.50
2018-06-27T01:56:45.914Z,2.20
2018-06-27T01:59:14.355Z,1.30
2018-06-27T02:01:42.700Z,1.80
2018-06-27T02:04:11.169Z,1.87
2018-06-27T02:06:39.573Z,1.50
2018-06-27T02:09:09.414Z,1.80
2018-06-27T02:11:37.900Z,1.90
2018-06-27T02:14:06.361Z,2.37
2018-06-27T02:16:35.141Z,1.97
2018-06-27T02:19:03.572Z,1.47
2018-06-27T02:21:32.878Z,1.50
2018-06-27T02:24:01.459Z,2.00
2018-06-27T02:26:29.831Z,2.00
2018-06-27T02:28:58.319Z,1.63
2018-06-27T02:31:26.719Z,1.60
2018-06-27T02:33:55.142Z,1.70
2018-06-27T02:36:23.472Z,1.67
2018-06-27T02:38:52.369Z,2.07
2018-06-27T02:41:20.744Z,1.60
2018-06-27T02:43:49.091Z,2.50
2018-06-27T02:46:17.469Z,1.70
2018-06-27T02:48:45.815Z,1.97
2018-06-27T02:51:14.224Z,1.90
2018-06-27T02:53:42.590Z,1.67
2018-06-27T02:56:11.667Z,1.83
2018-06-27T02:58:40.051Z,2.07
2018-06-27T03:01:08.432Z,1.97
2018-06-27T03:03:36.866Z,1.80
2018-06-27T03:06:05.434Z,2.30
2018-06-27T03:08:33.787Z,2.60
2018-06-27T03:11:02.314Z,2.00
2018-06-27T03:13:30.700Z,2.00
2018-06-27T03:15:59.682Z,1.83
2018-06-27T03:18:28.702Z,2.00
2018-06-27T03:20:57.211Z,1.70
2018-06-27T03:23:25.677Z,1.90
2018-06-27T03:25:54.066Z,1.53
2018-06-27T03:28:22.424Z,2.17
2018-06-27T03:30:50.841Z,2.20
2018-06-27T03:33:19.480Z,2.37
2018-06-27T03:35:47.943Z,1.80
2018-06-27T03:38:16.425Z,2.17
2018-06-27T03:40:44.796Z,2.37
2018-06-27T03:43:13.280Z,1.50
2018-06-27T03:45:41.697Z,2.30
2018-06-27T03:48:10.102Z,2.97
2018-06-27T03:50:38.516Z,2.07
2018-06-27T03:53:06.867Z,2.27
2018-06-27T03:55:35.081Z,2.33
2018-06-27T03:58:03.502Z,1.97
2018-06-27T04:00:31.863Z,2.23
2018-06-27T04:03:00.220Z,2.10
2018-06-27T04:05:28.618Z,3.10
2018-06-27T04:07:57.034Z,2.13
2018-06-27T04:10:25.388Z,2.63
2018-06-27T04:12:54.103Z,2.20
2018-06-27T04:15:22.476Z,2.07
2018-06-27T04:17:52.693Z,1.47
2018-06-27T04:20:21.068Z,2.67
2018-06-27T04:22:50.641Z,2.53
2018-06-27T04:25:18.960Z,2.00
2018-06-27T04:27:47.373Z,2.43
2018-06-27T04:30:15.740Z,1.77
2018-06-27T04:32:43.867Z,2.30
2018-06-27T04:35:12.221Z,2.50
2018-06-27T04:37:40.581Z,2.50
2018-06-27T04:40:08.955Z,2.33
2018-06-27T04:42:37.313Z,1.60
2018-06-27T04:45:05.758Z,1.90
2018-06-27T04:47:34.155Z,2.10
2018-06-27T04:50:02.498Z,1.90
2018-06-27T04:52:30.914Z,2.10
2018-06-27T04:54:59.405Z,1.80
2018-06-27T04:57:27.806Z,1.87
2018-06-27T04:59:56.173Z,1.97
2018-06-27T05:02:25.432Z,2.13
2018-06-27T05:04:53.857Z,1.73
2018-06-27T05:07:22.359Z,1.90
2018-06-27T05:09:50.733Z,1.50
2018-06-27T05:12:19.136Z,1.77
2018-06-27T05:14:47.471Z,2.30
2018-06-27T05:17:15.902Z,1.90
2018-06-27T05:19:44.681Z,2.00
2018-06-27T05:22:13.947Z,2.17
2018-06-27T05:24:42.663Z,1.77
2018-06-27T05:27:11.020Z,2.30
2018-06-27T05:29:39.388Z,1.60
2018-06-27T05:32:07.866Z,1.80
2018-06-27T05:34:36.284Z,1.90
2018-06-27T05:37:04.655Z,1.60
2018-06-27T05:39:33.052Z,1.80
2018-06-27T05:42:01.472Z,1.90
2018-06-27T05:44:29.920Z,1.77
2018-06-27T05:46:58.331Z,1.40
2018-06-27T05:49:26.919Z,1.33
2018-06-27T05:51:55.325Z,1.40
2018-06-27T05:54:24.362Z,1.50
2018-06-27T05:56:52.930Z,1.47
2018-06-27T05:59:21.374Z,1.90
2018-06-27T06:01:49.785Z,1.30
2018-06-27T06:04:19.232Z,1.97
2018-06-27T06:06:47.618Z,1.63
2018-06-27T06:09:16.047Z,1.37
2018-06-27T06:11:45.410Z,1.40
2018-06-27T06:14:13.876Z,1.22
2018-06-27T06:16:42.376Z,1.80
2018-06-27T06:19:10.774Z,1.00
2018-06-27T06:21:39.185Z,1.20
2018-06-27T06:24:07.717Z,1.50
2018-06-27T06:26:36.155Z,0.93
2018-06-27T06:29:04.647Z,0.90
2018-06-27T06:31:33.077Z,0.88
2018-06-27T06:34:01.207Z,1.20
2018-06-27T06:36:29.675Z,0.80
2018-06-27T06:38:58.259Z,1.17
2018-06-27T06:41:26.623Z,1.40
2018-06-27T06:43:55.095Z,1.05
2018-06-27T06:46:23.488Z,1.10
2018-06-27T06:48:51.980Z,0.90
2018-06-27T06:51:20.342Z,0.90
2018-06-27T06:53:48.705Z,1.10
2018-06-27T06:56:17.146Z,0.82
2018-06-27T06:58:45.542Z,0.93
2018-06-27T07:01:13.979Z,1.80
2018-06-27T07:03:42.564Z,0.80
2018-06-27T07:06:11.019Z,0.75
2018-06-27T07:08:39.376Z,0.82
2018-06-27T07:11:07.785Z,0.62
2018-06-27T07:13:36.184Z,0.70
2018-06-27T07:16:04.565Z,0.40
2018-06-27T07:18:32.906Z,0.70
2018-06-27T07:21:01.296Z,0.65
2018-06-27T07:23:29.680Z,0.55
2018-06-27T07:25:58.108Z,0.82
2018-06-27T07:28:26.567Z,0.70
2018-06-27T07:30:54.639Z,0.90
2018-06-27T07:33:22.978Z,1.00
2018-06-27T07:35:51.332Z,0.85
2018-06-27T07:38:19.775Z,0.72
2018-06-27T07:40:48.157Z,0.80
2018-06-27T07:43:16.555Z,1.05
2018-06-27T07:45:44.926Z,0.80
2018-06-27T07:48:13.289Z,1.07
2018-06-27T07:50:41.700Z,0.42
2018-06-27T07:53:10.843Z,0.78
2018-06-27T07:55:39.247Z,0.72
2018-06-27T07:58:07.639Z,0.82
2018-06-27T08:00:36.068Z,0.75
2018-06-27T08:03:04.416Z,0.50
2018-06-27T08:05:32.791Z,0.70
2018-06-27T08:08:01.222Z,0.75
2018-06-27T08:10:29.574Z,0.50
2018-06-27T08:12:58.003Z,0.60
2018-06-27T08:15:26.410Z,0.70
2018-06-27T08:17:54.898Z,0.93
2018-06-27T08:20:23.173Z,0.70
2018-06-27T08:22:51.568Z,0.68
2018-06-27T08:25:20.011Z,0.40
2018-06-27T08:27:48.435Z,0.50
2018-06-27T08:30:16.842Z,0.40
2018-06-27T08:32:45.295Z,0.55
2018-06-27T08:35:13.667Z,0.70
2018-06-27T08:37:42.117Z,0.72
2018-06-27T08:40:10.561Z,0.47
2018-06-27T08:42:39.002Z,0.30
2018-06-27T08:45:07.441Z,0.57
2018-06-27T08:47:35.846Z,0.30
2018-06-27T08:50:04.388Z,0.50
2018-06-27T08:52:32.754Z,0.60
2018-06-27T08:55:01.204Z,0.25
2018-06-27T08:57:29.615Z,0.55
2018-06-27T08:59:58.023Z,0.70
2018-06-27T09:02:26.593Z,0.53
2018-06-27T09:04:55.038Z,0.60
2018-06-27T09:07:23.596Z,0.40
2018-06-27T09:09:52.031Z,0.40
2018-06-27T09:12:20.484Z,0.40
2018-06-27T09:14:48.918Z,0.40
2018-06-27T09:17:17.313Z,0.47
2018-06-27T09:19:45.721Z,0.80
2018-06-27T09:22:14.133Z,0.50
2018-06-27T09:24:43.338Z,0.40
2018-06-27T09:27:12.553Z,0.40
2018-06-27T09:29:40.972Z,0.57
2018-06-27T09:32:09.351Z,0.60
2018-06-27T09:34:37.771Z,0.40
2018-06-27T09:37:06.205Z,0.40
2018-06-27T09:39:34.628Z,0.60
2018-06-27T09:42:03.034Z,0.47
2018-06-27T09:44:31.413Z,0.40
2018-06-27T09:46:59.903Z,0.35
2018-06-27T09:49:28.375Z,0.50
2018-06-27T09:51:56.756Z,0.40
2018-06-27T09:54:25.153Z,0.57
2018-06-27T09:56:53.749Z,0.60
2018-06-27T09:59:22.134Z,0.40
2018-06-27T10:01:50.747Z,0.65
2018-06-27T10:04:19.175Z,0.62
2018-06-27T10:06:47.537Z,0.60
2018-06-27T10:09:15.901Z,1.52
2018-06-27T10:11:44.263Z,0.75
2018-06-27T10:14:12.657Z,0.55
2018-06-27T10:16:41.029Z,0.60
2018-06-27T10:19:09.497Z,0.82
2018-06-27T10:21:37.969Z,0.47
2018-06-27T10:24:06.381Z,0.50
2018-06-27T10:26:34.753Z,0.50
2018-06-27T10:29:02.966Z,0.40
2018-06-27T10:31:31.449Z,0.50
2018-06-27T10:33:59.795Z,0.53
2018-06-27T10:36:28.164Z,0.85
2018-06-27T10:38:56.542Z,0.55
2018-06-27T10:41:24.679Z,0.47
2018-06-27T10:43:53.092Z,0.75
2018-06-27T10:46:21.880Z,0.57
2018-06-27T10:48:50.223Z,0.42
2018-06-27T10:51:18.725Z,0.68
2018-06-27T10:53:47.109Z,0.50
2018-06-27T10:56:15.456Z,0.68
2018-06-27T10:58:44.444Z,0.57
2018-06-27T11:01:12.946Z,0.62
2018-06-27T11:03:41.305Z,0.42
2018-06-27T11:06:10.014Z,0.72
2018-06-27T11:08:38.573Z,0.60
2018-06-27T11:11:06.974Z,0.57
2018-06-27T11:13:35.650Z,0.53
2018-06-27T11:16:04.113Z,0.62
2018-06-27T11:18:32.593Z,0.40
2018-06-27T11:21:01.056Z,0.60
2018-06-27T11:23:29.505Z,0.55
2018-06-27T11:25:57.932Z,0.47
2018-06-27T11:28:26.326Z,0.57
2018-06-27T11:30:54.697Z,0.53
2018-06-27T11:33:23.079Z,0.42
2018-06-27T11:35:51.487Z,0.60
2018-06-27T11:38:19.914Z,0.60
2018-06-27T11:40:48.299Z,0.50
2018-06-27T11:43:16.706Z,0.70
2018-06-27T11:45:45.185Z,0.68
2018-06-27T11:48:14.204Z,0.50
2018-06-27T11:50:42.630Z,0.70
2018-06-27T11:53:11.102Z,0.82
2018-06-27T11:55:39.488Z,0.60
2018-06-27T11:58:07.840Z,0.60
2018-06-27T12:00:36.312Z,0.70
2018-06-27T12:03:04.748Z,0.70
2018-06-27T12:05:33.152Z,0.75
2018-06-27T12:08:01.514Z,0.50
2018-06-27T12:10:29.947Z,0.70
2018-06-27T12:12:58.395Z,0.70
2018-06-27T12:15:26.763Z,0.70
2018-06-27T12:17:55.286Z,0.50
2018-06-27T12:20:24.204Z,0.40
2018-06-27T12:22:52.720Z,0.70
2018-06-27T12:25:22.044Z,0.80
2018-06-27T12:27:50.495Z,0.70
2018-06-27T12:30:22.069Z,1.00
2018-06-27T12:32:51.066Z,0.90
2018-06-27T12:35:20.662Z,1.22
2018-06-27T12:37:49.244Z,0.72
2018-06-27T12:40:17.928Z,0.75
2018-06-27T12:42:46.341Z,0.75
2018-06-27T12:45:14.827Z,0.80
2018-06-27T12:47:43.601Z,0.70
2018-06-27T12:50:12.034Z,0.75
2018-06-27T12:52:40.572Z,0.72
2018-06-27T12:55:11.731Z,0.62
2018-06-27T12:57:40.168Z,0.82
2018-06-27T13:00:09.718Z,0.60
2018-06-27T13:02:38.156Z,0.47
2018-06-27T13:05:07.521Z,0.60
2018-06-27T13:07:35.923Z,0.70
2018-06-27T13:10:05.053Z,0.60
2018-06-27T13:12:33.488Z,0.62
2018-06-27T13:15:01.907Z,0.90
2018-06-27T13:17:30.305Z,0.80
2018-06-27T13:19:58.793Z,0.62
2018-06-27T13:22:27.182Z,0.78
2018-06-27T13:24:55.561Z,0.47
2018-06-27T13:27:24.537Z,0.70
2018-06-27T13:29:52.900Z,0.50
2018-06-27T13:32:21.277Z,0.60
2018-06-27T13:34:49.771Z,0.40
2018-06-27T13:37:18.167Z,0.78
2018-06-27T13:39:46.506Z,0.50
2018-06-27T13:42:14.847Z,0.62
2018-06-27T13:44:43.231Z,0.40
2018-06-27T13:47:11.656Z,0.75
2018-06-27T13:49:40.084Z,0.60
2018-06-27T13:52:08.451Z,0.60
2018-06-27T13:54:36.829Z,0.50
2018-06-27T13:57:05.191Z,0.57
2018-06-27T13:59:33.558Z,1.05
2018-06-27T14:02:01.964Z,0.68
2018-06-27T14:04:30.379Z,0.70
2018-06-27T14:06:58.816Z,0.90
2018-06-27T14:09:27.181Z,0.40
2018-06-27T14:11:55.621Z,0.60
2018-06-27T14:14:24.111Z,0.80
2018-06-27T14:16:52.628Z,0.55
2018-06-27T14:19:20.996Z,0.50
2018-06-27T14:21:49.380Z,0.70
2018-06-27T14:24:17.812Z,0.62
2018-06-27T14:26:46.209Z,0.60
2018-06-27T14:29:19.122Z,0.60
2018-06-27T14:31:47.682Z,0.53
2018-06-27T14:34:16.095Z,0.60
2018-06-27T14:36:44.510Z,0.60
2018-06-27T14:39:12.900Z,0.60
2018-06-27T14:41:41.280Z,0.98
2018-06-27T14:44:09.639Z,0.85
2018-06-27T14:46:38.079Z,0.68
2018-06-27T14:49:06.484Z,0.40
2018-06-27T14:51:35.170Z,0.65
2018-06-27T14:54:03.688Z,0.80
2018-06-27T14:56:31.977Z,0.80
2018-06-27T14:59:00.534Z,0.78
2018-06-27T15:01:28.957Z,1.10
2018-06-27T15:03:57.980Z,1.10
2018-06-27T15:06:26.515Z,0.75
2018-06-27T15:08:54.925Z,1.02
2018-06-27T15:11:23.319Z,0.60
2018-06-27T15:13:51.733Z,0.78
2018-06-27T15:16:20.157Z,0.70
2018-06-27T15:18:48.498Z,0.98
2018-06-27T15:21:16.921Z,0.70
2018-06-27T15:23:45.411Z,0.70
2018-06-27T15:26:13.848Z,1.17
2018-06-27T15:28:42.555Z,0.70
2018-06-27T15:31:10.962Z,0.65
2018-06-27T15:33:39.425Z,0.98
2018-06-27T15:36:07.917Z,0.90
2018-06-27T15:38:36.270Z,1.85
2018-06-27T15:41:11.286Z,1.37
2018-06-27T15:43:39.652Z,0.90
2018-06-27T15:46:08.074Z,1.02
2018-06-27T15:48:36.478Z,0.82
2018-06-27T15:51:04.871Z,1.17
2018-06-27T15:53:33.263Z,0.82
2018-06-27T15:56:01.755Z,0.95
2018-06-27T15:58:30.109Z,0.90
2018-06-27T16:00:58.488Z,0.60
2018-06-27T16:03:26.877Z,0.75
2018-06-27T16:05:55.324Z,0.60
2018-06-27T16:08:23.700Z,0.80
2018-06-27T16:10:52.198Z,0.57
2018-06-27T16:13:20.660Z,0.78
2018-06-27T16:15:49.149Z,1.05
2018-06-27T16:18:24.066Z,2.22
2018-06-27T16:20:52.469Z,1.10
2018-06-27T16:23:21.056Z,0.80
2018-06-27T16:25:49.718Z,0.80
2018-06-27T16:28:18.117Z,0.70
2018-06-27T16:30:46.581Z,1.00
2018-06-27T16:33:14.965Z,0.50
2018-06-27T16:35:43.401Z,0.62
2018-06-27T16:38:11.952Z,0.80
2018-06-27T16:40:40.755Z,0.85
2018-06-27T16:43:09.220Z,0.75
2018-06-27T16:45:37.602Z,0.80
2018-06-27T16:48:06.100Z,0.70
2018-06-27T16:50:34.524Z,0.70
2018-06-27T16:53:02.956Z,0.65
2018-06-27T16:55:31.471Z,1.00
2018-06-27T16:57:59.982Z,0.72
2018-06-27T17:00:29.218Z,0.88
2018-06-27T17:02:57.694Z,0.90
2018-06-27T17:05:26.128Z,0.78
2018-06-27T17:07:54.509Z,0.90
2018-06-27T17:10:22.889Z,0.53
2018-06-27T17:12:51.354Z,0.80
2018-06-27T17:15:19.723Z,1.10
2018-06-27T17:17:48.106Z,0.90
2018-06-27T17:20:17.008Z,0.62
2018-06-27T17:22:45.411Z,0.72
2018-06-27T17:25:13.880Z,0.80
2018-06-27T17:27:42.243Z,0.80
2018-06-27T17:30:10.377Z,0.85
2018-06-27T17:32:38.824Z,0.60
2018-06-27T17:35:07.231Z,0.60
2018-06-27T17:37:35.637Z,0.80
2018-06-27T17:40:04.273Z,0.95
2018-06-27T17:42:32.658Z,1.22
2018-06-27T17:45:01.047Z,0.78
2018-06-27T17:47:29.531Z,0.98
2018-06-27T17:49:57.950Z,0.82
2018-06-27T17:52:26.363Z,0.70
2018-06-27T17:54:54.763Z,0.70
2018-06-27T17:57:23.112Z,0.90
2018-06-27T17:59:51.532Z,0.70
2018-06-27T18:02:19.935Z,0.90
2018-06-27T18:04:48.317Z,0.60
2018-06-27T18:07:16.668Z,0.70
2018-06-27T18:09:45.049Z,0.88
2018-06-27T18:12:13.439Z,0.62
2018-06-27T18:14:41.850Z,0.82
2018-06-27T18:17:10.208Z,1.15
2018-06-27T18:19:38.622Z,0.95
2018-06-27T18:22:07.000Z,0.70
2018-06-27T18:24:35.437Z,0.80
2018-06-27T18:27:03.873Z,0.70
2018-06-27T18:29:32.272Z,1.00
2018-06-27T18:32:00.648Z,0.90
2018-06-27T18:34:29.634Z,0.68
2018-06-27T18:36:58.038Z,1.10
2018-06-27T18:39:26.525Z,1.22
2018-06-27T18:41:54.883Z,1.05
2018-06-27T18:44:23.258Z,0.85
2018-06-27T18:46:51.633Z,0.72
2018-06-27T18:49:20.059Z,0.70
2018-06-27T18:51:48.448Z,1.05
2018-06-27T18:54:16.845Z,0.88
2018-06-27T18:56:45.262Z,1.10
2018-06-27T18:59:13.653Z,1.02
2018-06-27T19:01:42.092Z,2.22
2018-06-27T19:04:10.550Z,1.15
2018-06-27T19:06:39.032Z,0.72
2018-06-27T19:09:10.808Z,0.98
2018-06-27T19:11:40.202Z,0.93
2018-06-27T19:14:08.839Z,0.80
2018-06-27T19:16:37.408Z,0.75
2018-06-27T19:19:06.021Z,0.75
2018-06-27T19:21:34.528Z,0.80
2018-06-27T19:24:02.955Z,0.55
2018-06-27T19:26:31.342Z,0.70
2018-06-27T19:28:59.710Z,0.80
2018-06-27T19:31:28.123Z,0.60
2018-06-27T19:33:56.583Z,0.75
2018-06-27T19:36:25.013Z,0.75
2018-06-27T19:38:53.405Z,0.90
2018-06-27T19:41:21.925Z,0.78
2018-06-27T19:43:50.307Z,0.80
2018-06-27T19:46:18.723Z,0.65
2018-06-27T19:48:48.228Z,0.80
2018-06-27T19:51:16.671Z,0.70
2018-06-27T19:53:45.069Z,0.70
2018-06-27T19:56:13.566Z,0.65
2018-06-27T19:58:41.948Z,0.82
2018-06-27T20:01:10.355Z,1.07
2018-06-27T20:03:38.713Z,0.70
2018-06-27T20:06:07.153Z,1.87
2018-06-27T20:08:36.093Z,1.50
2018-06-27T20:11:04.670Z,0.90
2018-06-27T20:13:33.055Z,0.90
2018-06-27T20:16:01.569Z,0.72
2018-06-27T20:18:29.896Z,0.75
2018-06-27T20:20:58.288Z,0.70
2018-06-27T20:23:26.646Z,0.62
2018-06-27T20:25:55.081Z,0.80
2018-06-27T20:28:23.467Z,0.78
2018-06-27T20:30:51.640Z,0.60
2018-06-27T20:33:20.005Z,0.70
2018-06-27T20:35:49.026Z,0.82
2018-06-27T20:38:17.482Z,0.70
2018-06-27T20:40:45.912Z,2.42
2018-06-27T20:43:14.311Z,2.45
2018-06-27T20:45:42.751Z,1.07
2018-06-27T20:48:11.174Z,1.87
2018-06-27T20:50:39.532Z,0.88
2018-06-27T20:53:07.931Z,0.70
2018-06-27T20:55:36.309Z,1.22
2018-06-27T20:58:04.704Z,1.05
2018-06-27T21:00:33.064Z,1.00
2018-06-27T21:03:01.440Z,2.40
2018-06-27T21:05:29.840Z,1.50
2018-06-27T21:07:58.220Z,1.07
2018-06-27T21:10:26.600Z,0.80
2018-06-27T21:12:54.987Z,0.88
2018-06-27T21:15:23.446Z,0.90
2018-06-27T21:17:51.834Z,0.90
2018-06-27T21:20:20.305Z,1.20
2018-06-27T21:22:48.687Z,1.05
2018-06-27T21:25:17.126Z,1.17
2018-06-27T21:27:45.530Z,1.20
2018-06-27T21:30:13.927Z,0.90
2018-06-27T21:32:42.364Z,0.88
2018-06-27T21:35:10.745Z,1.10
2018-06-27T21:37:39.219Z,0.72
2018-06-27T21:40:07.637Z,1.10
2018-06-27T21:42:36.043Z,1.10
2018-06-27T21:45:04.463Z,0.88
2018-06-27T21:47:33.793Z,1.70
2018-06-27T21:50:02.164Z,0.70
2018-06-27T21:52:30.581Z,1.10
2018-06-27T21:54:58.970Z,1.00
2018-06-27T21:57:27.353Z,1.00
2018-06-27T21:59:55.835Z,1.43
2018-06-27T22:02:24.197Z,0.80
2018-06-27T22:04:52.585Z,0.70
2018-06-27T22:07:20.937Z,0.98
2018-06-27T22:09:49.286Z,1.02
2018-06-27T22:12:17.687Z,0.75
2018-06-27T22:14:46.118Z,0.80
2018-06-27T22:17:14.543Z,0.85
2018-06-27T22:19:42.972Z,0.82
2018-06-27T22:22:11.366Z,0.90
2018-06-27T22:24:39.765Z,0.98
2018-06-27T22:27:08.192Z,0.98
2018-06-27T22:29:36.558Z,0.75
2018-06-27T22:32:04.913Z,0.93
2018-06-27T22:34:33.283Z,0.93
2018-06-27T22:37:01.668Z,1.10
2018-06-27T22:39:30.087Z,1.12
2018-06-27T22:41:58.437Z,1.12
2018-06-27T22:44:27.208Z,1.00
2018-06-27T22:46:55.562Z,0.93
2018-06-27T22:49:23.965Z,0.80
2018-06-27T22:51:52.328Z,1.15
2018-06-27T22:54:20.745Z,0.85
2018-06-27T22:56:49.117Z,0.93
2018-06-27T22:59:17.500Z,1.23
2018-06-27T23:01:45.900Z,0.90
2018-06-27T23:04:14.309Z,1.15
2018-06-27T23:06:42.693Z,1.07
2018-06-27T23:09:11.444Z,1.40
2018-06-27T23:11:39.936Z,0.93
2018-06-27T23:14:08.415Z,1.10
2018-06-27T23:16:36.787Z,1.10
2018-06-27T23:19:05.202Z,0.97
2018-06-27T23:21:33.603Z,0.93
2018-06-27T23:24:01.987Z,1.30
2018-06-27T23:26:30.415Z,1.27
2018-06-27T23:28:58.844Z,1.37
2018-06-27T23:31:27.238Z,1.42
2018-06-27T23:33:55.599Z,1.20
2018-06-27T23:36:24.069Z,1.90
2018-06-27T23:38:52.439Z,0.97
2018-06-27T23:41:20.888Z,1.10
2018-06-27T23:43:49.882Z,1.87
2018-06-27T23:46:19.041Z,1.10
2018-06-27T23:48:47.398Z,1.30
2018-06-27T23:51:15.774Z,1.40
2018-06-27T23:53:44.116Z,1.40
2018-06-27T23:56:12.497Z,1.20
2018-06-27T23:58:40.873Z,1.60
